createdAt,value
2019-02-10T00:00:14.726Z,3.19
2019-02-10T00:01:14.805Z,3.13
2019-02-10T00:02:15.066Z,3.06
2019-02-10T00:03:15.327Z,2.95
2019-02-10T00:04:15.615Z,2.98
2019-02-10T00:05:14.884Z,2.99
2019-02-10T00:06:15.144Z,2.96
2019-02-10T00:07:15.409Z,2.98
2019-02-10T00:08:14.674Z,3.02
2019-02-10T00:09:14.940Z,3.00
2019-02-10T00:10:15.222Z,2.93
2019-02-10T00:11:15.250Z,2.98
2019-02-10T00:12:15.517Z,3.27
2019-02-10T00:13:14.787Z,3.20
2019-02-10T00:14:15.052Z,3.14
2019-02-10T00:15:15.309Z,2.99
2019-02-10T00:16:15.580Z,3.00
2019-02-10T00:17:14.836Z,3.06
2019-02-10T00:18:15.101Z,3.06
2019-02-10T00:19:15.374Z,3.07
2019-02-10T00:20:15.654Z,3.17
2019-02-10T00:21:14.711Z,3.20
2019-02-10T00:22:16.477Z,3.14
2019-02-10T00:23:15.016Z,3.22
2019-02-10T00:24:15.295Z,3.16
2019-02-10T00:25:15.579Z,3.23
2019-02-10T00:26:14.859Z,3.16
2019-02-10T00:27:15.117Z,3.19
2019-02-10T00:28:15.376Z,3.26
2019-02-10T00:29:15.641Z,3.14
2019-02-10T00:30:14.962Z,3.16
2019-02-10T00:31:15.025Z,3.16
2019-02-10T00:32:15.293Z,3.06
2019-02-10T00:33:15.561Z,3.07
2019-02-10T00:34:14.820Z,3.04
2019-02-10T00:35:15.388Z,3.00
2019-02-10T00:36:15.654Z,2.98
2019-02-10T00:37:14.912Z,3.07
2019-02-10T00:38:15.180Z,3.09
2019-02-10T00:39:15.444Z,3.04
2019-02-10T00:40:14.713Z,3.12
2019-02-10T00:41:14.775Z,3.13
2019-02-10T00:42:15.063Z,3.13
2019-02-10T00:43:15.332Z,3.10
2019-02-10T00:44:15.593Z,3.12
2019-02-10T00:45:14.864Z,3.13
2019-02-10T00:46:15.122Z,3.24
2019-02-10T00:47:15.387Z,3.12
2019-02-10T00:48:15.646Z,3.12
2019-02-10T00:49:14.923Z,3.09
2019-02-10T00:50:15.203Z,3.09
2019-02-10T00:51:15.251Z,2.93
2019-02-10T00:52:15.532Z,2.93
2019-02-10T00:53:14.875Z,2.99
2019-02-10T00:54:15.147Z,2.99
2019-02-10T00:55:15.416Z,3.16
2019-02-10T00:56:14.675Z,3.14
2019-02-10T00:57:14.936Z,3.03
2019-02-10T00:58:15.196Z,3.06
2019-02-10T00:59:15.456Z,3.13
2019-02-10T01:00:14.739Z,3.09
2019-02-10T01:01:14.783Z,3.09
2019-02-10T01:02:15.026Z,3.07
2019-02-10T01:03:15.301Z,2.99
2019-02-10T01:04:15.865Z,3.07
2019-02-10T01:05:15.158Z,3.04
2019-02-10T01:06:15.422Z,3.14
2019-02-10T01:07:14.692Z,3.03
2019-02-10T01:08:14.967Z,3.04
2019-02-10T01:09:15.246Z,3.06
2019-02-10T01:10:15.513Z,2.99
2019-02-10T01:11:15.560Z,3.03
2019-02-10T01:12:14.821Z,3.03
2019-02-10T01:13:15.088Z,2.99
2019-02-10T01:14:15.352Z,2.98
2019-02-10T01:15:15.609Z,2.96
2019-02-10T01:16:14.865Z,3.04
2019-02-10T01:17:15.135Z,3.04
2019-02-10T01:18:15.415Z,3.27
2019-02-10T01:19:14.677Z,3.28
2019-02-10T01:20:14.964Z,3.03
2019-02-10T01:21:15.017Z,2.93
2019-02-10T01:22:15.273Z,3.00
2019-02-10T01:23:15.534Z,3.07
2019-02-10T01:24:14.788Z,3.07
2019-02-10T01:25:15.057Z,3.19
2019-02-10T01:26:15.326Z,3.17
2019-02-10T01:27:15.846Z,3.16
2019-02-10T01:28:15.110Z,3.14
2019-02-10T01:29:15.372Z,3.28
2019-02-10T01:30:15.658Z,3.17
2019-02-10T01:31:14.702Z,3.16
2019-02-10T01:32:14.966Z,3.23
2019-02-10T01:33:15.232Z,3.03
2019-02-10T01:34:15.499Z,3.24
2019-02-10T01:35:14.768Z,3.16
2019-02-10T01:36:15.038Z,3.17
2019-02-10T01:37:15.310Z,3.13
2019-02-10T01:38:15.591Z,3.10
2019-02-10T01:39:14.858Z,3.00
2019-02-10T01:40:15.126Z,3.03
2019-02-10T01:41:15.188Z,3.06
2019-02-10T01:42:15.455Z,3.04
2019-02-10T01:43:14.726Z,3.14
2019-02-10T01:44:14.981Z,3.06
2019-02-10T01:45:15.246Z,3.23
2019-02-10T01:46:15.526Z,3.27
2019-02-10T01:47:14.787Z,3.16
2019-02-10T01:48:15.063Z,3.20
2019-02-10T01:49:15.327Z,3.10
2019-02-10T01:50:15.608Z,3.27
2019-02-10T01:51:14.676Z,3.22
2019-02-10T01:52:14.951Z,3.20
2019-02-10T01:53:15.209Z,3.12
2019-02-10T01:54:15.476Z,3.10
2019-02-10T01:55:14.755Z,3.07
2019-02-10T01:56:15.027Z,2.99
2019-02-10T01:57:15.298Z,3.12
2019-02-10T01:58:15.571Z,3.13
2019-02-10T01:59:14.834Z,2.98
2019-02-10T02:00:15.108Z,3.09
2019-02-10T02:01:15.170Z,3.00
2019-02-10T02:02:15.445Z,2.96
2019-02-10T02:03:14.703Z,2.89
2019-02-10T02:04:14.970Z,2.91
2019-02-10T02:05:15.253Z,3.24
2019-02-10T02:06:15.517Z,3.14
2019-02-10T02:07:14.777Z,3.09
2019-02-10T02:08:15.045Z,3.07
2019-02-10T02:09:15.314Z,3.07
2019-02-10T02:10:15.596Z,3.14
2019-02-10T02:11:15.653Z,3.07
2019-02-10T02:12:14.912Z,3.04
2019-02-10T02:13:15.168Z,2.89
2019-02-10T02:14:15.435Z,2.89
2019-02-10T02:15:14.700Z,2.93
2019-02-10T02:16:14.967Z,2.93
2019-02-10T02:17:15.220Z,2.92
2019-02-10T02:18:15.498Z,2.91
2019-02-10T02:19:14.776Z,2.84
2019-02-10T02:20:15.052Z,2.86
2019-02-10T02:21:15.116Z,2.91
2019-02-10T02:22:15.377Z,2.91
2019-02-10T02:23:15.672Z,2.88
2019-02-10T02:24:14.934Z,2.91
2019-02-10T02:25:15.208Z,2.88
2019-02-10T02:26:15.479Z,2.86
2019-02-10T02:27:14.746Z,2.88
2019-02-10T02:28:15.012Z,2.92
2019-02-10T02:29:15.281Z,2.85
2019-02-10T02:30:15.573Z,2.95
2019-02-10T02:31:15.595Z,2.92
2019-02-10T02:32:14.860Z,2.85
2019-02-10T02:33:15.128Z,2.89
2019-02-10T02:34:15.389Z,2.81
2019-02-10T02:35:15.660Z,2.79
2019-02-10T02:36:14.939Z,2.79
2019-02-10T02:37:15.223Z,2.84
2019-02-10T02:38:15.488Z,2.79
2019-02-10T02:39:14.762Z,2.71
2019-02-10T02:40:15.035Z,2.75
2019-02-10T02:41:15.106Z,2.88
2019-02-10T02:42:15.382Z,2.82
2019-02-10T02:43:15.649Z,2.78
2019-02-10T02:44:14.928Z,2.78
2019-02-10T02:45:15.194Z,2.79
2019-02-10T02:46:15.471Z,2.82
2019-02-10T02:47:14.733Z,2.85
2019-02-10T02:48:15.009Z,2.82
2019-02-10T02:49:15.301Z,2.74
2019-02-10T02:50:15.568Z,2.75
2019-02-10T02:51:15.632Z,2.72
2019-02-10T02:52:14.905Z,2.68
2019-02-10T02:53:15.165Z,2.64
2019-02-10T02:54:15.449Z,2.64
2019-02-10T02:55:14.741Z,2.69
2019-02-10T02:56:15.007Z,2.63
2019-02-10T02:57:15.270Z,2.67
2019-02-10T02:58:16.034Z,2.65
2019-02-10T02:59:15.302Z,2.65
2019-02-10T03:00:15.584Z,2.71
2019-02-10T03:01:15.632Z,2.68
2019-02-10T03:02:14.906Z,2.71
2019-02-10T03:03:15.183Z,2.68
2019-02-10T03:04:15.444Z,2.69
2019-02-10T03:05:14.719Z,2.64
2019-02-10T03:06:14.990Z,2.76
2019-02-10T03:07:17.904Z,2.88
2019-02-10T03:08:14.682Z,2.85
2019-02-10T03:09:14.964Z,2.88
2019-02-10T03:10:15.247Z,3.03
2019-02-10T03:11:15.329Z,3.06
2019-02-10T03:12:15.607Z,3.14
2019-02-10T03:13:14.874Z,3.16
2019-02-10T03:14:15.175Z,3.09
2019-02-10T03:15:15.465Z,3.37
2019-02-10T03:16:14.727Z,3.34
2019-02-10T03:17:15.060Z,3.23
2019-02-10T03:18:15.388Z,3.04
2019-02-10T03:19:15.662Z,2.74
2019-02-10T03:20:14.942Z,2.72
2019-02-10T03:21:15.048Z,2.68
2019-02-10T03:22:15.348Z,2.53
2019-02-10T03:23:15.635Z,2.44
2019-02-10T03:24:14.925Z,2.36
2019-02-10T03:25:15.199Z,2.29
2019-02-10T03:26:15.474Z,2.26
2019-02-10T03:27:14.745Z,2.23
2019-02-10T03:28:15.013Z,2.20
2019-02-10T03:29:15.308Z,2.14
2019-02-10T03:30:15.574Z,2.09
2019-02-10T03:31:15.626Z,2.12
2019-02-10T03:32:14.894Z,2.09
2019-02-10T03:33:15.194Z,2.16
2019-02-10T03:34:15.478Z,2.16
2019-02-10T03:35:14.754Z,2.13
2019-02-10T03:36:15.022Z,2.10
2019-02-10T03:37:15.297Z,2.24
2019-02-10T03:38:15.885Z,2.29
2019-02-10T03:39:15.161Z,2.23
2019-02-10T03:40:15.435Z,2.26
2019-02-10T03:41:15.482Z,2.47
2019-02-10T03:42:14.767Z,2.43
2019-02-10T03:43:15.039Z,2.60
2019-02-10T03:44:15.326Z,2.68
2019-02-10T03:45:15.610Z,2.79
2019-02-10T03:46:14.884Z,3.06
2019-02-10T03:47:15.156Z,3.30
2019-02-10T03:48:15.431Z,3.14
2019-02-10T03:49:14.713Z,3.16
2019-02-10T03:50:14.998Z,3.16
2019-02-10T03:51:15.063Z,3.19
2019-02-10T03:52:15.324Z,3.17
2019-02-10T03:53:15.611Z,3.22
2019-02-10T03:54:14.881Z,3.26
2019-02-10T03:55:15.160Z,3.24
2019-02-10T03:56:15.425Z,3.34
2019-02-10T03:57:14.695Z,3.41
2019-02-10T03:58:14.964Z,3.64
2019-02-10T03:59:15.249Z,3.57
2019-02-10T04:00:15.537Z,3.43
2019-02-10T04:01:15.604Z,3.39
2019-02-10T04:02:14.880Z,3.62
2019-02-10T04:03:15.143Z,3.65
2019-02-10T04:04:15.405Z,3.58
2019-02-10T04:05:14.660Z,3.54
2019-02-10T04:06:14.934Z,3.50
2019-02-10T04:07:15.203Z,3.53
2019-02-10T04:08:15.468Z,3.57
2019-02-10T04:09:14.760Z,3.54
2019-02-10T04:10:15.048Z,3.64
2019-02-10T04:11:15.107Z,3.72
2019-02-10T04:12:15.366Z,3.85
2019-02-10T04:13:15.646Z,3.81
2019-02-10T04:14:14.927Z,3.82
2019-02-10T04:15:15.206Z,3.78
2019-02-10T04:16:15.489Z,3.79
2019-02-10T04:17:14.765Z,3.77
2019-02-10T04:18:15.026Z,3.78
2019-02-10T04:19:15.288Z,3.86
2019-02-10T04:20:15.586Z,3.85
2019-02-10T04:21:15.622Z,3.85
2019-02-10T04:22:14.893Z,4.06
2019-02-10T04:23:15.196Z,4.16
2019-02-10T04:24:15.467Z,4.12
2019-02-10T04:25:14.734Z,4.02
2019-02-10T04:26:14.999Z,3.95
2019-02-10T04:27:15.269Z,4.00
2019-02-10T04:28:15.547Z,4.05
2019-02-10T04:29:14.814Z,4.06
2019-02-10T04:30:15.113Z,4.20
2019-02-10T04:31:15.170Z,4.17
2019-02-10T04:32:15.424Z,4.17
2019-02-10T04:33:14.687Z,4.16
2019-02-10T04:34:14.974Z,4.13
2019-02-10T04:35:15.233Z,4.08
2019-02-10T04:36:15.499Z,4.03
2019-02-10T04:37:14.768Z,4.08
2019-02-10T04:38:15.032Z,4.13
2019-02-10T04:39:15.301Z,4.08
2019-02-10T04:40:15.595Z,4.19
2019-02-10T04:41:15.639Z,4.12
2019-02-10T04:42:14.914Z,4.14
2019-02-10T04:43:15.178Z,4.10
2019-02-10T04:44:15.451Z,4.20
2019-02-10T04:45:14.733Z,4.12
2019-02-10T04:46:15.010Z,4.28
2019-02-10T04:47:15.287Z,4.23
2019-02-10T04:48:15.557Z,4.21
2019-02-10T04:49:14.827Z,4.21
2019-02-10T04:50:15.142Z,4.27
2019-02-10T04:51:15.155Z,4.23
2019-02-10T04:52:15.416Z,4.13
2019-02-10T04:53:14.684Z,4.13
2019-02-10T04:54:14.947Z,4.12
2019-02-10T04:55:15.209Z,4.14
2019-02-10T04:56:15.483Z,4.16
2019-02-10T04:57:14.747Z,4.19
2019-02-10T04:58:15.010Z,4.24
2019-02-10T04:59:15.270Z,4.33
2019-02-10T05:00:15.551Z,4.31
2019-02-10T05:01:15.610Z,4.40
2019-02-10T05:02:14.881Z,4.50
2019-02-10T05:03:15.156Z,4.46
2019-02-10T05:04:15.416Z,4.41
2019-02-10T05:05:14.680Z,4.44
2019-02-10T05:06:14.951Z,4.54
2019-02-10T05:07:15.212Z,4.53
2019-02-10T05:08:15.476Z,4.46
2019-02-10T05:09:14.742Z,4.54
2019-02-10T05:10:15.020Z,4.61
2019-02-10T05:11:15.078Z,4.63
2019-02-10T05:12:15.336Z,4.78
2019-02-10T05:13:15.594Z,4.79
2019-02-10T05:14:14.868Z,4.61
2019-02-10T05:15:15.131Z,4.69
2019-02-10T05:16:15.391Z,4.68
2019-02-10T05:17:15.663Z,4.67
2019-02-10T05:18:15.016Z,4.78
2019-02-10T05:19:15.288Z,4.85
2019-02-10T05:20:15.587Z,4.69
2019-02-10T05:21:15.612Z,4.74
2019-02-10T05:22:14.885Z,4.75
2019-02-10T05:23:15.147Z,4.82
2019-02-10T05:24:15.444Z,4.78
2019-02-10T05:25:14.738Z,4.78
2019-02-10T05:26:15.084Z,4.84
2019-02-10T05:27:15.394Z,4.75
2019-02-10T05:28:14.669Z,4.75
2019-02-10T05:29:14.927Z,4.78
2019-02-10T05:30:15.216Z,4.69
2019-02-10T05:31:15.250Z,4.69
2019-02-10T05:32:15.525Z,4.69
2019-02-10T05:33:14.785Z,4.76
2019-02-10T05:34:15.061Z,4.71
2019-02-10T05:35:15.334Z,4.71
2019-02-10T05:36:15.605Z,4.82
2019-02-10T05:37:14.874Z,4.78
2019-02-10T05:38:15.133Z,4.79
2019-02-10T05:39:15.393Z,4.79
2019-02-10T05:40:14.680Z,4.75
2019-02-10T05:41:14.743Z,4.58
2019-02-10T05:42:15.008Z,4.65
2019-02-10T05:43:15.267Z,4.65
2019-02-10T05:44:15.535Z,4.55
2019-02-10T05:45:14.796Z,4.48
2019-02-10T05:46:15.063Z,4.69
2019-02-10T05:47:15.334Z,4.91
2019-02-10T05:48:15.597Z,4.79
2019-02-10T05:49:14.862Z,4.74
2019-02-10T05:50:15.148Z,4.81
2019-02-10T05:51:15.202Z,4.85
2019-02-10T05:52:15.476Z,4.99
2019-02-10T05:53:14.753Z,4.99
2019-02-10T05:54:15.027Z,5.02
2019-02-10T05:55:15.305Z,5.00
2019-02-10T05:56:15.576Z,5.06
2019-02-10T05:57:14.847Z,4.96
2019-02-10T05:58:15.132Z,5.03
2019-02-10T05:59:15.403Z,4.93
2019-02-10T06:00:14.677Z,4.88
2019-02-10T06:01:14.750Z,4.91
2019-02-10T06:02:15.032Z,4.88
2019-02-10T06:03:15.310Z,4.89
2019-02-10T06:04:15.584Z,4.91
2019-02-10T06:05:14.859Z,5.00
2019-02-10T06:06:15.165Z,4.93
2019-02-10T06:07:16.564Z,5.00
2019-02-10T06:08:15.193Z,4.93
2019-02-10T06:09:15.494Z,5.03
2019-02-10T06:10:14.757Z,5.13
2019-02-10T06:11:14.847Z,5.17
2019-02-10T06:12:15.114Z,5.22
2019-02-10T06:13:15.372Z,5.31
2019-02-10T06:14:15.647Z,5.24
2019-02-10T06:15:14.913Z,5.17
2019-02-10T06:16:15.170Z,5.26
2019-02-10T06:17:15.450Z,5.26
2019-02-10T06:18:14.727Z,5.23
2019-02-10T06:19:15.007Z,5.31
2019-02-10T06:20:15.284Z,5.38
2019-02-10T06:21:15.335Z,5.30
2019-02-10T06:22:15.605Z,5.24
2019-02-10T06:23:14.881Z,5.31
2019-02-10T06:24:15.143Z,5.35
2019-02-10T06:25:15.430Z,5.45
2019-02-10T06:26:14.712Z,5.47
2019-02-10T06:27:14.977Z,5.45
2019-02-10T06:28:15.240Z,5.51
2019-02-10T06:29:15.503Z,5.45
2019-02-10T06:30:14.790Z,5.52
2019-02-10T06:31:14.850Z,5.43
2019-02-10T06:32:15.119Z,5.35
2019-02-10T06:33:15.387Z,5.45
2019-02-10T06:34:14.677Z,5.45
2019-02-10T06:35:14.974Z,5.44
2019-02-10T06:36:16.698Z,5.37
2019-02-10T06:37:15.122Z,5.35
2019-02-10T06:38:22.076Z,5.22
2019-02-10T06:39:15.183Z,5.37
2019-02-10T06:40:15.452Z,5.24
2019-02-10T06:41:15.528Z,5.24
2019-02-10T06:42:14.788Z,5.41
2019-02-10T06:43:15.055Z,5.37
2019-02-10T06:44:15.321Z,5.34
2019-02-10T06:45:15.597Z,5.28
2019-02-10T06:46:14.873Z,5.30
2019-02-10T06:47:15.140Z,5.37
2019-02-10T06:48:15.406Z,5.41
2019-02-10T06:49:14.678Z,5.43
2019-02-10T06:50:14.965Z,5.34
2019-02-10T06:51:15.030Z,5.37
2019-02-10T06:52:15.302Z,5.33
2019-02-10T06:53:15.562Z,5.40
2019-02-10T06:54:14.829Z,5.35
2019-02-10T06:55:15.105Z,5.44
2019-02-10T06:56:15.371Z,5.30
2019-02-10T06:57:16.038Z,5.35
2019-02-10T06:58:15.304Z,5.26
2019-02-10T06:59:15.577Z,5.28
2019-02-10T07:00:14.852Z,5.24
2019-02-10T07:01:14.902Z,5.40
2019-02-10T07:02:15.178Z,5.47
2019-02-10T07:03:15.443Z,5.55
2019-02-10T07:04:14.715Z,5.67
2019-02-10T07:05:14.982Z,5.72
2019-02-10T07:06:15.252Z,5.65
2019-02-10T07:07:15.528Z,5.67
2019-02-10T07:08:14.796Z,5.65
2019-02-10T07:09:15.069Z,5.77
2019-02-10T07:10:15.360Z,5.71
2019-02-10T07:11:15.416Z,5.71
2019-02-10T07:12:14.683Z,5.84
2019-02-10T07:13:14.948Z,5.86
2019-02-10T07:14:15.223Z,5.79
2019-02-10T07:15:15.519Z,5.77
2019-02-10T07:16:14.785Z,5.79
2019-02-10T07:17:15.054Z,5.85
2019-02-10T07:18:15.320Z,5.75
2019-02-10T07:19:15.608Z,5.74
2019-02-10T07:20:14.880Z,5.74
2019-02-10T07:21:14.936Z,5.84
2019-02-10T07:22:15.212Z,5.89
2019-02-10T07:23:15.472Z,5.82
2019-02-10T07:24:14.732Z,5.81
2019-02-10T07:25:15.005Z,5.78
2019-02-10T07:26:15.267Z,5.85
2019-02-10T07:27:15.535Z,5.85
2019-02-10T07:28:14.809Z,5.86
2019-02-10T07:29:15.090Z,5.91
2019-02-10T07:30:15.372Z,5.85
2019-02-10T07:31:15.402Z,5.82
2019-02-10T07:32:14.668Z,5.78
2019-02-10T07:33:14.925Z,5.77
2019-02-10T07:34:15.187Z,5.82
2019-02-10T07:35:15.457Z,5.82
2019-02-10T07:36:14.725Z,5.99
2019-02-10T07:37:15.002Z,6.06
2019-02-10T07:38:15.283Z,6.14
2019-02-10T07:39:15.551Z,6.02
2019-02-10T07:40:14.817Z,5.93
2019-02-10T07:41:14.874Z,5.93
2019-02-10T07:42:15.135Z,5.85
2019-02-10T07:43:15.397Z,5.81
2019-02-10T07:44:14.658Z,5.77
2019-02-10T07:45:14.923Z,5.93
2019-02-10T07:46:15.198Z,5.99
2019-02-10T07:47:15.461Z,5.98
2019-02-10T07:48:14.733Z,5.81
2019-02-10T07:49:15.012Z,5.84
2019-02-10T07:50:15.294Z,5.88
2019-02-10T07:51:15.357Z,6.00
2019-02-10T07:52:15.622Z,6.08
2019-02-10T07:53:14.890Z,6.13
2019-02-10T07:54:15.150Z,6.08
2019-02-10T07:55:15.697Z,5.98
2019-02-10T07:56:14.975Z,5.93
2019-02-10T07:57:15.265Z,6.03
2019-02-10T07:58:15.813Z,6.06
2019-02-10T07:59:15.095Z,6.02
2019-02-10T08:00:15.402Z,5.95
2019-02-10T08:01:15.429Z,5.96
2019-02-10T08:02:14.691Z,6.00
2019-02-10T08:03:14.944Z,6.00
2019-02-10T08:04:15.212Z,6.23
2019-02-10T08:05:15.528Z,6.17
2019-02-10T08:06:14.804Z,6.29
2019-02-10T08:07:15.084Z,6.33
2019-02-10T08:08:15.353Z,6.26
2019-02-10T08:09:15.624Z,6.21
2019-02-10T08:10:14.885Z,6.23
2019-02-10T08:11:14.967Z,6.23
2019-02-10T08:12:15.223Z,6.31
2019-02-10T08:13:15.496Z,6.36
2019-02-10T08:14:14.748Z,6.29
2019-02-10T08:15:15.023Z,6.33
2019-02-10T08:16:15.282Z,6.33
2019-02-10T08:17:15.585Z,6.31
2019-02-10T08:18:14.840Z,6.34
2019-02-10T08:19:15.115Z,6.31
2019-02-10T08:20:15.386Z,6.44
2019-02-10T08:21:15.460Z,6.49
2019-02-10T08:22:14.784Z,6.45
2019-02-10T08:23:15.052Z,6.43
2019-02-10T08:24:15.314Z,6.47
2019-02-10T08:25:15.589Z,6.40
2019-02-10T08:26:14.883Z,6.43
2019-02-10T08:27:15.139Z,6.38
2019-02-10T08:28:15.409Z,6.38
2019-02-10T08:29:14.677Z,6.38
2019-02-10T08:30:14.970Z,6.67
2019-02-10T08:31:15.020Z,6.69
2019-02-10T08:32:15.292Z,6.65
2019-02-10T08:33:15.583Z,6.59
2019-02-10T08:34:14.846Z,6.52
2019-02-10T08:35:15.116Z,6.51
2019-02-10T08:36:15.385Z,6.51
2019-02-10T08:37:15.638Z,6.47
2019-02-10T08:38:14.904Z,6.49
2019-02-10T08:39:15.164Z,6.45
2019-02-10T08:40:15.435Z,6.47
2019-02-10T08:41:15.498Z,6.63
2019-02-10T08:42:14.767Z,6.57
2019-02-10T08:43:15.033Z,6.51
2019-02-10T08:44:15.304Z,6.49
2019-02-10T08:45:15.572Z,6.47
2019-02-10T08:46:14.835Z,6.48
2019-02-10T08:47:15.121Z,6.48
2019-02-10T08:48:15.387Z,6.45
2019-02-10T08:49:14.657Z,6.38
2019-02-10T08:50:14.931Z,6.33
2019-02-10T08:51:14.995Z,6.34
2019-02-10T08:52:15.269Z,6.24
2019-02-10T08:53:15.546Z,6.30
2019-02-10T08:54:14.815Z,6.40
2019-02-10T08:55:15.092Z,6.38
2019-02-10T08:56:15.353Z,6.43
2019-02-10T08:57:15.627Z,6.51
2019-02-10T08:58:14.893Z,6.54
2019-02-10T08:59:15.149Z,6.51
2019-02-10T09:00:15.446Z,6.45
2019-02-10T09:01:15.475Z,6.51
2019-02-10T09:02:14.729Z,6.49
2019-02-10T09:03:19.497Z,6.43
2019-02-10T09:04:15.217Z,6.54
2019-02-10T09:05:15.510Z,6.57
2019-02-10T09:06:14.777Z,6.55
2019-02-10T09:07:15.437Z,6.65
2019-02-10T09:08:14.753Z,6.63
2019-02-10T09:09:15.034Z,6.72
2019-02-10T09:10:15.313Z,6.75
2019-02-10T09:11:15.373Z,6.78
2019-02-10T09:12:15.643Z,6.75
2019-02-10T09:13:14.919Z,6.75
2019-02-10T09:14:15.185Z,6.76
2019-02-10T09:15:15.452Z,6.94
2019-02-10T09:16:14.711Z,6.94
2019-02-10T09:17:14.974Z,6.89
2019-02-10T09:18:15.236Z,6.95
2019-02-10T09:19:15.497Z,7.03
2019-02-10T09:20:14.777Z,6.94
2019-02-10T09:21:14.824Z,6.88
2019-02-10T09:22:15.084Z,6.88
2019-02-10T09:23:15.340Z,6.96
2019-02-10T09:24:15.612Z,7.12
2019-02-10T09:25:14.882Z,7.15
2019-02-10T09:26:15.150Z,7.15
2019-02-10T09:27:15.421Z,7.15
2019-02-10T09:28:14.683Z,7.24
2019-02-10T09:29:14.950Z,7.17
2019-02-10T09:30:15.232Z,7.30
2019-02-10T09:31:15.280Z,7.35
2019-02-10T09:32:15.544Z,7.29
2019-02-10T09:33:14.808Z,7.29
2019-02-10T09:34:15.076Z,7.38
2019-02-10T09:35:15.336Z,7.48
2019-02-10T09:36:15.603Z,7.50
2019-02-10T09:37:14.875Z,7.44
2019-02-10T09:38:15.138Z,7.37
2019-02-10T09:39:15.402Z,7.48
2019-02-10T09:40:14.683Z,7.50
2019-02-10T09:41:14.747Z,7.47
2019-02-10T09:42:15.006Z,7.58
2019-02-10T09:43:15.277Z,7.66
2019-02-10T09:44:15.551Z,7.62
2019-02-10T09:45:14.825Z,7.75
2019-02-10T09:46:15.091Z,7.68
2019-02-10T09:47:15.353Z,7.62
2019-02-10T09:48:15.636Z,7.68
2019-02-10T09:49:14.903Z,7.72
2019-02-10T09:50:15.155Z,7.88
2019-02-10T09:51:15.229Z,7.92
2019-02-10T09:52:15.493Z,7.91
2019-02-10T09:53:14.763Z,7.99
2019-02-10T09:54:15.297Z,7.88
2019-02-10T09:55:15.572Z,7.84
2019-02-10T09:56:14.857Z,7.81
2019-02-10T09:57:15.122Z,7.92
2019-02-10T09:58:15.377Z,7.96
2019-02-10T09:59:14.649Z,7.92
2019-02-10T10:00:14.927Z,8.03
2019-02-10T10:01:14.972Z,8.09
2019-02-10T10:02:15.230Z,8.08
2019-02-10T10:03:15.506Z,8.13
2019-02-10T10:04:14.795Z,8.03
2019-02-10T10:05:15.078Z,8.06
2019-02-10T10:06:15.343Z,8.14
2019-02-10T10:07:15.600Z,8.08
2019-02-10T10:08:14.869Z,8.05
2019-02-10T10:09:19.180Z,8.10
2019-02-10T10:10:15.083Z,8.06
2019-02-10T10:11:15.156Z,8.13
2019-02-10T10:12:15.418Z,8.05
2019-02-10T10:13:14.684Z,8.08
2019-02-10T10:14:14.959Z,8.02
2019-02-10T10:15:15.223Z,7.98
2019-02-10T10:16:15.514Z,8.00
2019-02-10T10:17:14.776Z,8.00
2019-02-10T10:18:15.036Z,8.02
2019-02-10T10:19:15.294Z,8.09
2019-02-10T10:20:15.570Z,8.21
2019-02-10T10:21:15.627Z,8.09
2019-02-10T10:22:14.905Z,8.16
2019-02-10T10:23:15.169Z,8.09
2019-02-10T10:24:15.427Z,8.09
2019-02-10T10:25:14.694Z,8.20
2019-02-10T10:26:14.951Z,8.20
2019-02-10T10:27:15.224Z,8.20
2019-02-10T10:28:15.493Z,8.21
2019-02-10T10:29:14.756Z,8.27
2019-02-10T10:30:15.026Z,8.19
2019-02-10T10:31:15.098Z,8.20
2019-02-10T10:32:15.357Z,8.19
2019-02-10T10:33:15.617Z,8.16
2019-02-10T10:34:14.882Z,8.19
2019-02-10T10:35:15.164Z,8.24
2019-02-10T10:36:15.431Z,8.29
2019-02-10T10:37:14.693Z,8.29
2019-02-10T10:38:14.998Z,8.29
2019-02-10T10:39:15.652Z,8.33
2019-02-10T10:40:14.932Z,8.30
2019-02-10T10:41:14.995Z,8.27
2019-02-10T10:42:15.260Z,8.36
2019-02-10T10:43:15.526Z,8.33
2019-02-10T10:44:14.801Z,8.34
2019-02-10T10:45:15.089Z,8.29
2019-02-10T10:46:15.375Z,8.27
2019-02-10T10:47:15.638Z,8.37
2019-02-10T10:48:14.902Z,8.45
2019-02-10T10:49:15.165Z,8.48
2019-02-10T10:50:15.442Z,8.47
2019-02-10T10:51:15.481Z,8.44
2019-02-10T10:52:14.758Z,8.41
2019-02-10T10:53:15.019Z,8.40
2019-02-10T10:54:15.291Z,8.40
2019-02-10T10:55:15.553Z,8.44
2019-02-10T10:56:14.819Z,8.50
2019-02-10T10:57:15.998Z,8.36
2019-02-10T10:58:15.353Z,8.13
2019-02-10T10:59:15.618Z,8.24
2019-02-10T11:00:14.900Z,8.26
2019-02-10T11:01:14.975Z,8.29
2019-02-10T11:02:15.243Z,8.19
2019-02-10T11:03:17.158Z,8.19
2019-02-10T11:04:15.646Z,8.17
2019-02-10T11:05:15.047Z,8.24
2019-02-10T11:06:15.368Z,8.16
2019-02-10T11:07:15.633Z,8.33
2019-02-10T11:08:14.898Z,8.36
2019-02-10T11:09:15.174Z,8.43
2019-02-10T11:10:15.446Z,8.43
2019-02-10T11:11:15.531Z,8.43
2019-02-10T11:12:14.794Z,8.45
2019-02-10T11:13:15.073Z,8.39
2019-02-10T11:14:15.335Z,8.47
2019-02-10T11:15:15.603Z,8.39
2019-02-10T11:16:14.880Z,8.39
2019-02-10T11:17:15.153Z,8.44
2019-02-10T11:18:15.414Z,8.40
2019-02-10T11:19:14.679Z,8.41
2019-02-10T11:20:14.961Z,8.58
2019-02-10T11:21:15.028Z,8.59
2019-02-10T11:22:15.294Z,8.62
2019-02-10T11:23:15.553Z,8.55
2019-02-10T11:24:14.824Z,8.51
2019-02-10T11:25:15.090Z,8.72
2019-02-10T11:26:15.353Z,8.76
2019-02-10T11:27:15.626Z,8.68
2019-02-10T11:28:14.892Z,8.57
2019-02-10T11:29:15.155Z,8.85
2019-02-10T11:30:15.442Z,8.75
2019-02-10T11:31:15.507Z,8.74
2019-02-10T11:32:14.772Z,8.88
2019-02-10T11:33:15.039Z,8.82
2019-02-10T11:34:15.344Z,8.79
2019-02-10T11:35:15.612Z,8.80
2019-02-10T11:36:14.874Z,8.86
2019-02-10T11:37:15.143Z,8.91
2019-02-10T11:38:15.410Z,9.03
2019-02-10T11:39:14.671Z,9.10
2019-02-10T11:40:14.954Z,9.12
2019-02-10T11:41:14.993Z,8.99
2019-02-10T11:42:15.256Z,8.89
2019-02-10T11:43:15.528Z,8.76
2019-02-10T11:44:14.783Z,8.80
2019-02-10T11:45:15.061Z,8.99
2019-02-10T11:46:15.337Z,9.03
2019-02-10T11:47:15.630Z,9.00
2019-02-10T11:48:14.902Z,8.99
2019-02-10T11:49:15.182Z,8.92
2019-02-10T11:50:15.480Z,8.76
2019-02-10T11:51:15.530Z,8.78
2019-02-10T11:52:14.808Z,8.94
2019-02-10T11:53:15.076Z,9.16
2019-02-10T11:54:15.339Z,9.13
2019-02-10T11:55:15.613Z,9.20
2019-02-10T11:56:14.881Z,9.29
2019-02-10T11:57:15.155Z,9.16
2019-02-10T11:58:15.430Z,9.07
2019-02-10T11:59:14.701Z,9.15
2019-02-10T12:00:14.993Z,9.03
2019-02-10T12:01:15.059Z,9.30
2019-02-10T12:02:15.330Z,9.40
2019-02-10T12:03:15.607Z,9.34
2019-02-10T12:04:14.873Z,9.33
2019-02-10T12:05:15.147Z,9.36
2019-02-10T12:06:15.410Z,9.44
2019-02-10T12:07:14.686Z,9.48
2019-02-10T12:08:14.941Z,9.51
2019-02-10T12:09:15.207Z,9.99
2019-02-10T12:10:15.487Z,10.24
2019-02-10T12:11:15.561Z,10.17
2019-02-10T12:12:14.833Z,10.09
2019-02-10T12:13:15.092Z,10.41
2019-02-10T12:14:15.348Z,10.23
2019-02-10T12:15:15.611Z,10.41
2019-02-10T12:16:14.864Z,10.24
2019-02-10T12:17:15.121Z,10.03
2019-02-10T12:18:15.396Z,10.29
2019-02-10T12:19:14.663Z,10.33
2019-02-10T12:20:14.935Z,10.23
2019-02-10T12:21:14.990Z,10.24
2019-02-10T12:22:15.291Z,10.14
2019-02-10T12:23:15.583Z,10.24
2019-02-10T12:24:14.853Z,10.36
2019-02-10T12:25:15.111Z,10.34
2019-02-10T12:26:15.385Z,10.45
2019-02-10T12:27:14.655Z,10.60
2019-02-10T12:28:14.929Z,10.54
2019-02-10T12:29:15.205Z,10.39
2019-02-10T12:30:15.496Z,10.26
2019-02-10T12:31:15.541Z,10.09
2019-02-10T12:32:14.805Z,10.14
2019-02-10T12:33:15.083Z,10.23
2019-02-10T12:34:15.348Z,10.40
2019-02-10T12:35:15.627Z,10.40
2019-02-10T12:36:14.888Z,10.48
2019-02-10T12:37:15.146Z,10.54
2019-02-10T12:38:15.416Z,10.51
2019-02-10T12:39:14.686Z,10.37
2019-02-10T12:40:14.965Z,10.41
2019-02-10T12:41:15.038Z,10.45
2019-02-10T12:42:15.303Z,10.52
2019-02-10T12:43:15.567Z,10.40
2019-02-10T12:44:14.835Z,10.40
2019-02-10T12:45:15.106Z,10.67
2019-02-10T12:46:15.375Z,10.52
2019-02-10T12:47:15.653Z,10.44
2019-02-10T12:48:14.913Z,10.51
2019-02-10T12:49:15.173Z,10.56
2019-02-10T12:50:15.449Z,10.63
2019-02-10T12:51:15.506Z,10.63
2019-02-10T12:52:14.772Z,10.54
2019-02-10T12:53:15.060Z,10.57
2019-02-10T12:54:15.325Z,10.50
2019-02-10T12:55:15.623Z,10.50
2019-02-10T12:56:14.887Z,10.41
2019-02-10T12:57:15.165Z,10.40
2019-02-10T12:58:15.432Z,10.43
2019-02-10T12:59:14.698Z,10.40
2019-02-10T13:00:14.961Z,10.24
2019-02-10T13:01:15.045Z,10.16
2019-02-10T13:02:15.305Z,10.29
2019-02-10T13:03:15.567Z,10.30
2019-02-10T13:04:14.821Z,10.33
2019-02-10T13:05:15.094Z,10.26
2019-02-10T13:06:15.365Z,10.23
2019-02-10T13:07:15.649Z,10.34
2019-02-10T13:08:14.908Z,10.39
2019-02-10T13:09:15.201Z,10.40
2019-02-10T13:10:17.585Z,10.27
2019-02-10T13:11:15.545Z,10.21
2019-02-10T13:12:14.797Z,10.13
2019-02-10T13:13:19.240Z,10.12
2019-02-10T13:14:14.910Z,10.17
2019-02-10T13:15:15.176Z,10.14
2019-02-10T13:16:15.435Z,10.12